Time;durP1;ratioP1;P1;durP2;ratioP2;P2;SDS_P1;SDS_P2;PMS_P1;PMS_P2;Temp;Humidity;BMP_temperature;BMP_pressure;BME280_temperature;BME280_humidity;BME280_pressure;Samples;Min_cycle;Max_cycle;Signal;HPM_P1;HPM_P2
2023/06/20 00:00:50;;;;;;;14.30;7.60;;;;;;;-142.75;100.00;75845.97;5027603;28;20021;-62
2023/06/20 00:03:16;;;;;;;11.40;6.85;;;;;;;-142.75;100.00;75840.06;5026952;28;20030;-62
2023/06/20 00:05:42;;;;;;;14.30;6.85;;;;;;;-142.75;100.00;75838.09;5027349;28;20049;-61
2023/06/20 00:08:08;;;;;;;13.93;7.82;;;;;;;-142.75;100.00;75844.00;5027421;28;20275;-61
2023/06/20 00:10:33;;;;;;;12.95;7.28;;;;;;;-142.75;100.00;75849.91;5027485;28;20487;-61
2023/06/20 00:12:59;;;;;;;13.52;6.68;;;;;;;-142.75;100.00;75842.03;5027078;28;20612;-61
2023/06/20 00:15:25;;;;;;;13.55;7.00;;;;;;;-142.75;100.00;75849.91;5027190;28;20031;-61
2023/06/20 00:17:59;;;;;;;11.15;7.35;;;;;;;-142.75;100.00;75845.97;5027679;28;20029;-61
2023/06/20 00:20:25;;;;;;;13.55;7.93;;;;;;;-142.75;100.00;75855.81;5027278;28;20624;-61
2023/06/20 00:22:50;;;;;;;14.70;7.78;;;;;;;-142.75;100.00;75869.56;5026782;28;20029;-61
2023/06/20 00:25:17;;;;;;;11.70;7.05;;;;;;;-142.75;100.00;75873.50;5027290;28;20034;-62
2023/06/20 00:27:42;;;;;;;12.25;7.38;;;;;;;-142.75;100.00;75857.78;5026859;28;20029;-61
2023/06/20 00:30:08;;;;;;;11.32;7.07;;;;;;;-142.75;100.00;75859.72;5027297;28;20648;-61
2023/06/20 00:32:33;;;;;;;14.07;7.63;;;;;;;-142.75;100.00;75849.91;5026800;28;20021;-61
2023/06/20 00:34:59;;;;;;;9.43;6.07;;;;;;;-142.75;100.00;75857.78;5026892;28;20063;-61
2023/06/20 00:37:25;;;;;;;14.70;7.30;;;;;;;-142.75;100.00;75857.78;5026882;28;20039;-62
2023/06/20 00:39:51;;;;;;;11.55;6.32;;;;;;;-142.75;100.00;75851.88;5026798;28;20057;-61
2023/06/20 00:42:23;;;;;;;12.20;6.18;;;;;;;-142.75;100.00;75849.91;5026967;28;20080;-61
2023/06/20 00:44:50;;;;;;;12.38;7.03;;;;;;;-142.75;100.00;75853.84;5026290;28;20076;-60
2023/06/20 00:47:16;;;;;;;10.30;6.20;;;;;;;-142.75;100.00;75842.03;5027283;28;20060;-61
2023/06/20 00:49:45;;;;;;;11.30;6.25;;;;;;;-142.75;100.00;75847.94;5026620;28;20033;-61
2023/06/20 00:52:16;;;;;;;13.43;6.63;;;;;;;-142.75;100.00;75857.78;5026518;28;20025;-61
2023/06/20 00:54:46;;;;;;;11.30;6.90;;;;;;;-142.75;100.00;75857.78;5026628;28;20026;-61
2023/06/20 00:57:14;;;;;;;13.55;6.20;;;;;;;-142.75;100.00;75855.81;5026305;28;20530;-61
2023/06/20 00:59:43;;;;;;;14.60;6.63;;;;;;;-142.75;100.00;75847.94;5026361;28;20116;-61
2023/06/20 01:02:10;;;;;;;10.50;6.50;;;;;;;-142.75;100.00;75844.00;5026137;28;20025;-61
2023/06/20 01:04:35;;;;;;;13.18;5.95;;;;;;;-142.75;100.00;75844.00;5025088;28;20756;-61
2023/06/20 01:07:11;;;;;;;10.05;6.57;;;;;;;-142.75;100.00;75840.06;5026398;28;20021;-61
2023/06/20 01:09:52;;;;;;;9.13;5.88;;;;;;;-142.75;100.00;75838.09;5026029;28;20028;-61
2023/06/20 01:12:29;;;;;;;11.05;5.95;;;;;;;-142.75;100.00;75842.03;5026194;28;20029;-62
2023/06/20 01:15:56;;;;;;;11.07;6.20;;;;;;;-142.75;100.00;75857.78;5025278;28;20052;-61
2023/06/20 01:18:34;;;;;;;12.80;5.70;;;;;;;-142.75;100.00;75853.84;4982274;28;20046;-61
2023/06/20 01:21:11;;;;;;;9.02;5.60;;;;;;;-142.75;100.00;75857.78;5025869;28;20426;-62
2023/06/20 01:23:46;;;;;;;7.82;5.25;;;;;;;-142.75;100.00;75853.84;5025681;28;20029;-61
2023/06/20 01:26:23;;;;;;;10.80;5.20;;;;;;;-142.75;100.00;75853.84;5026049;28;20052;-62
2023/06/20 01:29:02;;;;;;;10.73;5.72;;;;;;;-142.75;100.00;75863.66;5025501;28;20104;-61
2023/06/20 01:31:36;;;;;;;10.73;5.82;;;;;;;-142.75;100.00;75867.59;5025778;28;20453;-61
2023/06/20 01:34:10;;;;;;;11.65;6.47;;;;;;;-142.75;100.00;75881.38;5025675;28;20025;-62
2023/06/20 01:36:39;;;;;;;8.75;5.82;;;;;;;-142.75;100.00;75875.47;5026047;28;20028;-62
2023/06/20 01:39:21;;;;;;;9.00;6.25;;;;;;;-142.75;100.00;75877.44;5025870;28;20045;-61
2023/06/20 01:41:49;;;;;;;9.48;5.10;;;;;;;-142.75;100.00;75879.41;5025809;28;20029;-61
2023/06/20 01:44:17;;;;;;;11.23;5.70;;;;;;;-142.75;100.00;75881.38;5025693;28;20112;-61
2023/06/20 01:46:46;;;;;;;12.43;6.10;;;;;;;-142.75;100.00;75873.50;5025938;28;20036;-61
2023/06/20 01:49:13;;;;;;;9.57;5.85;;;;;;;-142.75;100.00;75873.50;5025310;28;20098;-62
2023/06/20 01:51:39;;;;;;;12.70;6.40;;;;;;;-142.75;100.00;75873.50;5025601;28;20160;-62
2023/06/20 01:54:06;;;;;;;10.88;5.90;;;;;;;-142.75;100.00;75861.69;5025465;28;20035;-61
2023/06/20 01:56:33;;;;;;;9.95;5.55;;;;;;;-142.75;100.00;75853.84;5025343;28;20021;-62
2023/06/20 01:59:00;;;;;;;10.93;5.38;;;;;;;-142.75;100.00;75857.78;5025245;28;20116;-61
2023/06/20 02:01:26;;;;;;;9.75;5.70;;;;;;;-142.75;100.00;75865.63;5025140;28;20036;-61
2023/06/20 02:03:54;;;;;;;10.50;6.30;;;;;;;-142.75;100.00;75853.84;5025223;28;20029;-61
2023/06/20 02:06:21;;;;;;;10.95;5.32;;;;;;;-142.75;100.00;75861.69;5025172;28;20441;-61
2023/06/20 02:08:48;;;;;;;9.73;5.45;;;;;;;-142.75;100.00;75849.91;5025298;28;20062;-61
2023/06/20 02:11:14;;;;;;;9.35;5.45;;;;;;;-142.75;100.00;75849.91;5025451;28;20033;-61
2023/06/20 02:13:40;;;;;;;8.98;5.35;;;;;;;-142.75;100.00;75838.09;5024632;28;20029;-61
2023/06/20 02:16:08;;;;;;;10.38;6.03;;;;;;;-142.75;100.00;75838.09;5025460;28;20517;-61
2023/06/20 02:18:34;;;;;;;9.45;5.40;;;;;;;-142.75;100.00;75836.13;5025435;28;20573;-60
2023/06/20 02:21:10;;;;;;;10.45;5.90;;;;;;;-142.75;100.00;75844.00;5025185;28;20104;-61
2023/06/20 02:23:38;;;;;;;10.00;5.57;;;;;;;-142.75;100.00;75845.97;5024871;28;20033;-61
2023/06/20 02:26:11;;;;;;;9.10;5.18;;;;;;;-142.75;100.00;75842.03;5024779;28;20193;-61
2023/06/20 02:28:44;;;;;;;10.32;5.55;;;;;;;-142.75;100.00;75826.28;5024497;28;20034;-61
2023/06/20 02:31:17;;;;;;;11.40;5.90;;;;;;;-142.75;100.00;75834.16;5025002;28;20033;-61
2023/06/20 02:33:44;;;;;;;8.88;5.47;;;;;;;-142.75;100.00;75830.22;5024668;28;20044;-61
2023/06/20 02:36:12;;;;;;;9.82;5.25;;;;;;;-142.75;100.00;75838.09;5024973;28;20025;-61
2023/06/20 02:38:37;;;;;;;8.82;4.90;;;;;;;-142.75;100.00;75830.22;5024862;28;20025;-61
2023/06/20 02:41:03;;;;;;;10.73;5.60;;;;;;;-142.75;100.00;75822.34;5024986;28;20109;-60
2023/06/20 02:43:29;;;;;;;10.90;5.47;;;;;;;-142.75;100.00;75830.22;5024732;28;20017;-60
2023/06/20 02:46:30;;;;;;;8.60;5.65;;;;;;;-142.75;100.00;75822.34;5024888;28;20483;-61
2023/06/20 02:49:19;;;;;;;9.15;5.15;;;;;;;-142.75;100.00;75822.34;5023995;28;20395;-60
2023/06/20 02:52:05;;;;;;;9.38;5.57;;;;;;;-142.75;100.00;75826.28;5024904;28;20541;-61
2023/06/20 02:54:45;;;;;;;8.27;5.13;;;;;;;-142.75;100.00;75838.09;5025042;28;20482;-62
2023/06/20 02:57:15;;;;;;;10.43;5.95;;;;;;;-142.75;100.00;75834.16;5024615;28;20479;-61
2023/06/20 02:59:44;;;;;;;9.80;5.05;;;;;;;-142.75;100.00;75845.97;5024678;28;20499;-61
2023/06/20 03:02:12;;;;;;;9.77;5.55;;;;;;;-142.75;100.00;75853.84;5024767;28;20021;-61
2023/06/20 03:04:39;;;;;;;9.68;5.28;;;;;;;-142.75;100.00;75859.72;5024703;28;20037;-61
2023/06/20 03:07:07;;;;;;;8.93;5.47;;;;;;;-142.75;100.00;75853.84;5024785;28;20057;-61
2023/06/20 03:09:33;;;;;;;10.02;5.55;;;;;;;-142.75;100.00;75851.88;5024966;28;20057;-60
2023/06/20 03:11:59;;;;;;;10.95;5.95;;;;;;;-142.75;100.00;75861.69;5024410;28;20026;-60
2023/06/20 03:14:24;;;;;;;8.85;5.28;;;;;;;-142.75;100.00;75861.69;5024854;28;20021;-60
2023/06/20 03:16:49;;;;;;;10.30;5.60;;;;;;;-142.75;100.00;75851.88;5025231;28;20021;-61
2023/06/20 03:19:15;;;;;;;10.88;6.28;;;;;;;-142.75;100.00;75853.84;5024848;28;20538;-60
2023/06/20 03:21:40;;;;;;;10.50;5.80;;;;;;;-142.75;100.00;75853.84;5024495;28;20103;-61
2023/06/20 03:24:06;;;;;;;8.68;5.28;;;;;;;-142.75;100.00;75849.91;5024373;28;20030;-60
2023/06/20 03:26:36;;;;;;;9.52;6.07;;;;;;;-142.75;100.00;75838.09;5024745;28;20025;-60
2023/06/20 03:29:01;;;;;;;10.65;5.95;;;;;;;-142.75;100.00;75842.03;5024219;28;20531;-60
2023/06/20 03:31:27;;;;;;;9.98;5.38;;;;;;;-142.75;100.00;75838.09;5024566;28;20018;-61
2023/06/20 03:33:52;;;;;;;8.70;5.15;;;;;;;-142.75;100.00;75838.09;5024726;28;20194;-62
2023/06/20 03:36:17;;;;;;;10.05;6.25;;;;;;;-142.75;100.00;75838.09;5024553;28;20769;-61
2023/06/20 03:38:43;;;;;;;8.35;5.53;;;;;;;-142.75;100.00;75838.09;5027661;28;20033;-62
2023/06/20 03:41:08;;;;;;;9.55;5.70;;;;;;;-142.75;100.00;75842.03;5028116;28;20074;-62
2023/06/20 03:43:33;;;;;;;9.52;5.45;;;;;;;-142.75;100.00;75838.09;5027712;28;20057;-62
2023/06/20 03:45:59;;;;;;;8.60;5.63;;;;;;;-142.75;100.00;75842.03;5027841;28;20060;-62
2023/06/20 03:48:25;;;;;;;9.02;5.57;;;;;;;-142.75;100.00;75830.22;5028357;28;20079;-62
2023/06/20 03:50:50;;;;;;;9.40;5.40;;;;;;;-142.75;100.00;75822.34;5027789;28;20394;-62
2023/06/20 03:53:15;;;;;;;9.60;5.95;;;;;;;-142.75;100.00;75838.09;5027533;28;20031;-62
2023/06/20 03:55:41;;;;;;;9.38;5.28;;;;;;;-142.75;100.00;75816.44;5027914;28;20025;-61
2023/06/20 03:58:06;;;;;;;9.82;5.53;;;;;;;-142.75;100.00;75836.13;5026279;28;20018;-62
2023/06/20 04:00:31;;;;;;;7.60;5.00;;;;;;;-142.75;100.00;75828.25;5027519;28;20103;-61
2023/06/20 04:02:57;;;;;;;7.75;4.80;;;;;;;-142.75;100.00;75826.28;5027284;28;20422;-61
2023/06/20 04:05:22;;;;;;;12.27;5.82;;;;;;;-142.75;100.00;75836.13;5027544;28;20032;-62
2023/06/20 04:07:47;;;;;;;8.50;5.43;;;;;;;-142.75;100.00;75842.03;5027532;28;20632;-62
2023/06/20 04:10:14;;;;;;;9.15;5.45;;;;;;;-142.75;100.00;75842.03;5027325;28;20087;-61
2023/06/20 04:12:40;;;;;;;10.75;5.78;;;;;;;-142.75;100.00;75840.06;5026908;28;20083;-61
2023/06/20 04:15:06;;;;;;;7.63;5.20;;;;;;;-142.75;100.00;75838.09;5027350;28;20036;-61
2023/06/20 04:17:32;;;;;;;9.07;5.53;;;;;;;-142.75;100.00;75845.97;5027768;28;20071;-61
2023/06/20 04:19:59;;;;;;;13.73;5.90;;;;;;;-142.75;100.00;75849.91;5027015;28;20029;-61
2023/06/20 04:22:26;;;;;;;9.75;6.30;;;;;;;-142.75;100.00;75849.91;5027292;28;20033;-61
2023/06/20 04:24:55;;;;;;;11.15;6.65;;;;;;;-142.75;100.00;75847.94;5027053;28;20033;-61
2023/06/20 04:27:20;;;;;;;10.30;5.50;;;;;;;-142.75;100.00;75849.91;5027402;28;20029;-62
2023/06/20 04:29:45;;;;;;;11.07;6.47;;;;;;;-142.75;100.00;75849.91;5027098;28;20083;-61
2023/06/20 04:32:11;;;;;;;11.75;6.25;;;;;;;-142.75;100.00;75844.00;5025390;28;20017;-62
2023/06/20 04:34:36;;;;;;;10.60;6.20;;;;;;;-142.75;100.00;75847.94;5026936;28;20634;-62
2023/06/20 04:37:01;;;;;;;10.45;5.22;;;;;;;-142.75;100.00;75844.00;5026655;28;20033;-61
2023/06/20 04:39:29;;;;;;;9.77;5.55;;;;;;;-142.75;100.00;75838.09;5026862;28;20079;-62
2023/06/20 04:41:54;;;;;;;10.60;6.05;;;;;;;-142.75;100.00;75834.16;5026749;28;20147;-62
2023/06/20 04:44:20;;;;;;;14.20;6.20;;;;;;;-142.75;100.00;75830.22;5026754;28;20029;-61
2023/06/20 04:46:45;;;;;;;9.10;5.97;;;;;;;-142.75;100.00;75830.22;5027209;28;20530;-62
2023/06/20 04:49:10;;;;;;;10.68;5.53;;;;;;;-142.75;100.00;75838.09;5025298;28;20120;-62
2023/06/20 04:51:36;;;;;;;10.48;6.25;;;;;;;-142.75;100.00;75838.09;5026692;28;20026;-62
2023/06/20 04:54:01;;;;;;;10.73;6.10;;;;;;;-142.75;100.00;75838.09;5026595;28;20398;-61
2023/06/20 04:56:26;;;;;;;10.77;6.38;;;;;;;-142.75;100.00;75834.16;5026910;28;20029;-61
2023/06/20 04:58:52;;;;;;;9.65;5.65;;;;;;;-142.75;100.00;75845.97;5026313;28;20118;-61
2023/06/20 05:01:17;;;;;;;9.00;6.43;;;;;;;-142.75;100.00;75836.13;5026883;28;20602;-61
2023/06/20 05:03:43;;;;;;;9.38;5.57;;;;;;;-142.75;100.00;75838.09;5026212;28;20419;-61
2023/06/20 05:06:09;;;;;;;9.73;6.50;;;;;;;-142.75;100.00;75845.97;5026251;28;20162;-61
2023/06/20 05:08:34;;;;;;;10.25;6.22;;;;;;;-142.75;100.00;75836.13;5026246;28;20031;-61
2023/06/20 05:11:00;;;;;;;10.25;6.20;;;;;;;-142.75;100.00;75824.31;5041484;28;20075;-61
2023/06/20 05:13:25;;;;;;;10.48;5.82;;;;;;;-142.75;100.00;75810.53;5026057;28;20025;-62
2023/06/20 05:15:50;;;;;;;10.73;6.07;;;;;;;-142.75;100.00;75812.50;5026231;28;20109;-61
2023/06/20 05:18:16;;;;;;;11.55;6.07;;;;;;;-142.75;100.00;75810.53;5026721;28;20026;-61
2023/06/20 05:20:41;;;;;;;11.35;6.18;;;;;;;-142.75;100.00;75808.56;5025977;28;20037;-61
2023/06/20 05:23:06;;;;;;;11.45;6.43;;;;;;;-142.75;100.00;75812.50;5026013;28;20041;-62
2023/06/20 05:25:32;;;;;;;10.80;7.28;;;;;;;-142.75;100.00;75824.31;5026182;28;20064;-61
2023/06/20 05:27:57;;;;;;;9.05;6.30;;;;;;;-142.75;100.00;75828.25;5026000;28;20108;-62
2023/06/20 05:30:23;;;;;;;11.25;6.93;;;;;;;-142.75;100.00;75828.25;5026204;28;20030;-62
2023/06/20 05:32:48;;;;;;;11.57;7.15;;;;;;;-142.75;100.00;75834.16;5025742;28;20462;-62
2023/06/20 05:35:14;;;;;;;12.45;7.13;;;;;;;-142.75;100.00;75798.72;5025538;28;20022;-61
2023/06/20 05:37:39;;;;;;;9.65;6.03;;;;;;;-142.75;100.00;75782.97;5025840;28;20376;-61
2023/06/20 05:40:06;;;;;;;10.27;6.30;;;;;;;-142.75;100.00;75765.25;5025676;28;20106;-61
2023/06/20 05:42:31;;;;;;;11.65;7.20;;;;;;;-142.75;100.00;75765.25;5025595;28;20039;-62
2023/06/20 05:44:57;;;;;;;10.73;7.07;;;;;;;-142.75;100.00;75763.28;5026204;28;20387;-62
2023/06/20 05:47:22;;;;;;;13.45;7.00;;;;;;;-142.75;100.00;75759.38;5026836;28;20029;-62
2023/06/20 05:49:48;;;;;;;12.10;7.00;;;;;;;-142.75;100.00;75755.44;5027736;28;20040;-61
2023/06/20 05:52:14;;;;;;;10.48;6.75;;;;;;;-142.75;100.00;75749.53;5024540;28;20083;-61
2023/06/20 05:54:42;;;;;;;10.60;7.28;;;;;;;-142.75;100.00;75751.50;5022825;28;20079;-61
2023/06/20 05:57:08;;;;;;;11.57;7.65;;;;;;;-142.75;100.00;75743.63;5024244;28;21284;-61
2023/06/20 05:59:33;;;;;;;10.60;6.97;;;;;;;-142.75;100.00;75741.66;5023178;28;20021;-62
2023/06/20 06:01:58;;;;;;;12.82;7.50;;;;;;;-142.75;100.00;75751.50;5025066;28;20104;-62
2023/06/20 06:04:25;;;;;;;10.50;7.05;;;;;;;-142.75;100.00;75753.47;5024430;28;20017;-61
2023/06/20 06:06:51;;;;;;;12.77;7.40;;;;;;;-142.75;100.00;75747.56;5024780;28;20025;-61
2023/06/20 06:09:16;;;;;;;12.77;7.85;;;;;;;-142.75;100.00;75735.75;5024838;28;20475;-62
2023/06/20 06:11:41;;;;;;;12.73;7.68;;;;;;;-142.75;100.00;75720.00;5040587;28;20075;-62
2023/06/20 06:14:07;;;;;;;12.48;7.15;;;;;;;-142.75;100.00;75710.16;5025064;28;20094;-62
2023/06/20 06:16:32;;;;;;;14.55;9.00;;;;;;;-142.75;100.00;75718.03;5025231;28;20499;-62
2023/06/20 06:18:59;;;;;;;12.77;8.50;;;;;;;-142.75;100.00;75723.94;5025271;28;20033;-62
2023/06/20 06:21:25;;;;;;;12.93;8.93;;;;;;;-142.75;100.00;75712.13;5025164;28;20057;-62
2023/06/20 06:23:50;;;;;;;13.50;8.57;;;;;;;-142.75;100.00;75704.25;5024716;28;20577;-61
2023/06/20 06:26:16;;;;;;;15.63;8.50;;;;;;;-142.75;100.00;75694.41;5025626;28;20037;-62
2023/06/20 06:28:41;;;;;;;13.18;9.30;;;;;;;-142.75;100.00;75684.56;5024947;28;20052;-62
2023/06/20 06:31:11;;;;;;;14.60;9.70;;;;;;;-142.75;100.00;75674.72;5025075;28;20033;-62
2023/06/20 06:33:37;;;;;;;13.60;9.27;;;;;;;-142.75;100.00;75672.78;5024296;28;20028;-63
2023/06/20 06:36:02;;;;;;;14.57;8.63;;;;;;;-142.75;100.00;75668.84;5024357;28;20022;-60
2023/06/20 06:38:28;;;;;;;18.15;10.15;;;;;;;-142.75;100.00;75657.03;5024669;28;20025;-61
2023/06/20 06:40:54;;;;;;;15.85;9.50;;;;;;;-142.75;100.00;75657.03;5023807;28;20032;-62
2023/06/20 06:43:20;;;;;;;15.43;9.55;;;;;;;-142.75;100.00;75635.38;5024622;28;20511;-61
2023/06/20 06:45:46;;;;;;;14.40;9.38;;;;;;;-142.75;100.00;75633.41;5025069;28;20708;-63
2023/06/20 06:48:11;;;;;;;16.00;10.13;;;;;;;-142.75;100.00;75615.69;5025203;28;20017;-63
2023/06/20 06:50:36;;;;;;;14.30;9.70;;;;;;;-142.75;100.00;75603.88;5024726;28;20463;-63
2023/06/20 06:53:02;;;;;;;15.75;10.88;;;;;;;-142.75;100.00;75601.91;5023792;28;20053;-63
2023/06/20 06:55:27;;;;;;;14.93;9.90;;;;;;;-142.75;100.00;75588.16;5024195;28;20147;-63
2023/06/20 06:57:52;;;;;;;17.50;11.40;;;;;;;-142.75;100.00;75576.34;5023003;28;20022;-62
2023/06/20 07:00:18;;;;;;;14.20;10.05;;;;;;;-142.75;100.00;75584.22;5024444;28;20079;-62
2023/06/20 07:02:44;;;;;;;16.88;11.05;;;;;;;-142.75;100.00;75576.34;5024791;28;20114;-63
2023/06/20 07:05:10;;;;;;;16.15;10.45;;;;;;;-142.75;100.00;75580.28;5022795;28;20036;-63
2023/06/20 07:07:36;;;;;;;15.50;10.40;;;;;;;-142.75;100.00;75564.53;5021420;28;20037;-62
2023/06/20 07:10:01;;;;;;;17.90;11.05;;;;;;;-142.75;100.00;75546.81;5022693;28;20018;-62
2023/06/20 07:12:27;;;;;;;19.92;12.32;;;;;;;-142.75;100.00;75529.09;5025399;28;20422;-63
2023/06/20 07:14:56;;;;;;;16.27;11.10;;;;;;;-142.75;100.00;75527.13;5028104;28;20099;-64
2023/06/20 07:17:24;;;;;;;17.92;11.40;;;;;;;-142.75;100.00;75515.31;5027708;28;20469;-63
2023/06/20 07:19:50;;;;;;;15.48;10.65;;;;;;;-142.75;100.00;75497.63;5027738;28;20052;-63
2023/06/20 07:22:15;;;;;;;18.35;11.38;;;;;;;-142.75;100.00;75485.81;5025704;28;20589;-63
2023/06/20 07:24:41;;;;;;;18.90;12.50;;;;;;;-142.75;100.00;75474.00;5025629;28;20036;-63
2023/06/20 07:27:06;;;;;;;17.88;12.15;;;;;;;-142.75;100.00;75464.16;5026039;28;20688;-63
2023/06/20 07:29:31;;;;;;;18.33;11.43;;;;;;;-142.75;100.00;75446.44;5027093;28;20601;-63
2023/06/20 07:31:57;;;;;;;17.25;11.25;;;;;;;-142.75;100.00;75434.66;5026633;28;20429;-63
2023/06/20 07:34:22;;;;;;;19.83;11.32;;;;;;;-142.75;100.00;75428.75;5026947;28;20064;-63
2023/06/20 07:36:48;;;;;;;16.73;10.55;;;;;;;-142.75;100.00;75414.97;5027004;28;20494;-63
2023/06/20 07:39:13;;;;;;;17.60;11.80;;;;;;;-142.75;100.00;75401.19;5027758;28;20033;-63
2023/06/20 07:41:38;;;;;;;17.20;11.77;;;;;;;-142.75;100.00;75405.13;5021817;28;20087;-63
2023/06/20 07:44:04;;;;;;;17.13;11.50;;;;;;;-142.75;100.00;75381.50;5025505;28;20028;-63
2023/06/20 07:46:30;;;;;;;16.98;11.07;;;;;;;-142.75;100.00;75391.34;5025058;28;20022;-63
2023/06/20 07:48:55;;;;;;;15.82;10.77;;;;;;;-142.75;100.00;75367.72;5025259;28;20028;-63
2023/06/20 07:51:21;;;;;;;15.45;10.02;;;;;;;-142.75;100.00;75342.16;5026356;28;20047;-57
2023/06/20 07:53:46;;;;;;;14.90;9.90;;;;;;;-142.75;100.00;75320.50;5026859;28;20032;-63
2023/06/20 07:56:12;;;;;;;16.92;11.18;;;;;;;-142.75;100.00;75291.00;5026534;28;20075;-62
2023/06/20 07:58:39;;;;;;;16.88;10.93;;;;;;;-142.75;100.00;75277.22;5026816;28;20035;-63
2023/06/20 08:01:06;;;;;;;14.60;9.90;;;;;;;-142.75;100.00;75247.69;5026354;28;20441;-63
2023/06/20 08:03:31;;;;;;;15.40;9.20;;;;;;;-142.75;100.00;75239.81;5026237;28;20052;-63
2023/06/20 08:05:57;;;;;;;13.07;9.15;;;;;;;-142.75;100.00;75245.72;5026393;28;20029;-63
2023/06/20 08:08:22;;;;;;;14.75;9.23;;;;;;;-142.75;100.00;75228.00;5026640;28;20096;-63
2023/06/20 08:10:48;;;;;;;15.40;9.07;;;;;;;-142.75;100.00;75210.31;5026038;28;20468;-63
2023/06/20 08:13:13;;;;;;;16.58;10.05;;;;;;;-142.75;100.00;75204.41;5024370;28;20031;-63
2023/06/20 08:15:38;;;;;;;13.63;8.68;;;;;;;-142.75;100.00;75196.53;5026369;28;20036;-64
2023/06/20 08:18:03;;;;;;;15.35;10.15;;;;;;;-142.75;100.00;75168.97;5027000;28;20014;-62
2023/06/20 08:20:30;;;;;;;15.20;9.68;;;;;;;-142.75;100.00;75139.47;5026405;28;20487;-63
2023/06/20 08:22:55;;;;;;;16.13;10.27;;;;;;;-142.75;100.00;75129.63;5026286;28;20036;-63
2023/06/20 08:25:21;;;;;;;12.02;8.20;;;;;;;-142.75;100.00;75125.69;5026706;28;20076;-63
2023/06/20 08:27:46;;;;;;;21.75;9.98;;;;;;;-142.75;100.00;75113.88;5026876;28;20487;-61
2023/06/20 08:30:12;;;;;;;13.23;8.40;;;;;;;-142.75;100.00;75090.28;5026090;28;20554;-63
2023/06/20 08:32:39;;;;;;;12.15;8.65;;;;;;;-142.75;100.00;75072.56;5025231;28;20032;-63
2023/06/20 08:35:05;;;;;;;14.00;7.25;;;;;;;-142.75;100.00;75080.44;5025954;28;20025;-62
2023/06/20 08:37:30;;;;;;;10.75;7.05;;;;;;;-142.75;100.00;75070.59;5026262;28;20491;-62
2023/06/20 08:39:55;;;;;;;12.70;8.93;;;;;;;-142.75;100.00;75050.91;5023886;28;20549;-63
2023/06/20 08:42:21;;;;;;;11.35;7.15;;;;;;;-142.75;100.00;75048.94;5028068;28;20076;-62
2023/06/20 08:44:46;;;;;;;13.02;7.30;;;;;;;-142.75;100.00;75043.03;5025938;28;20021;-62
2023/06/20 08:47:11;;;;;;;11.10;7.35;;;;;;;-142.75;100.00;75033.22;5024960;28;20037;-63
2023/06/20 08:49:38;;;;;;;13.70;8.48;;;;;;;-142.75;100.00;75037.16;5025592;28;20029;-63
2023/06/20 08:52:11;;;;;;;10.80;8.18;;;;;;;-142.75;100.00;75039.13;5024843;28;20052;-62
2023/06/20 08:54:40;;;;;;;13.50;8.60;;;;;;;-142.75;100.00;75035.19;5024200;28;20092;-62
2023/06/20 08:57:06;;;;;;;10.90;7.30;;;;;;;-142.75;100.00;75041.09;5026089;28;20025;-63
2023/06/20 08:59:33;;;;;;;22.95;10.27;;;;;;;-142.75;100.00;75035.19;5024267;28;20032;-62
2023/06/20 09:01:59;;;;;;;12.50;8.68;;;;;;;-142.75;100.00;75015.50;5024742;28;20025;-62
2023/06/20 09:04:27;;;;;;;11.57;7.53;;;;;;;-142.75;100.00;74995.81;5024076;28;20380;-62
2023/06/20 09:06:52;;;;;;;11.63;7.35;;;;;;;-142.75;100.00;75025.34;5024570;28;20140;-62
2023/06/20 09:09:17;;;;;;;14.82;6.88;;;;;;;-142.75;100.00;75027.31;5025657;28;20044;-63
2023/06/20 09:11:58;;;;;;;12.10;5.72;;;;;;;-142.75;100.00;75003.69;5023016;28;20582;-63
2023/06/20 09:14:27;;;;;;;8.45;5.65;;;;;;;-142.75;100.00;74991.88;5023146;28;20026;-62
2023/06/20 09:16:53;;;;;;;9.45;6.18;;;;;;;-142.75;100.00;74974.19;5023166;28;20491;-63
2023/06/20 09:19:18;;;;;;;10.70;5.30;;;;;;;-142.75;100.00;74958.44;5023500;28;20025;-63
2023/06/20 09:21:43;;;;;;;9.55;6.00;;;;;;;-142.75;100.00;74962.38;5022065;28;20147;-62
2023/06/20 09:24:09;;;;;;;8.93;4.80;;;;;;;-142.75;100.00;74958.44;5021924;28;21865;-62
2023/06/20 09:26:34;;;;;;;8.55;5.68;;;;;;;-142.75;98.65;74954.50;5022500;28;20116;-62
2023/06/20 09:29:11;;;;;;;9.63;5.50;;;;;;;-142.75;100.00;74936.78;5025024;28;20108;-63
2023/06/20 09:31:54;;;;;;;5.80;4.28;;;;;;;-142.75;100.00;74923.03;5025307;28;20083;-61
2023/06/20 09:34:20;;;;;;;8.45;4.75;;;;;;;-142.75;97.43;74932.84;5025067;28;20025;-62
2023/06/20 09:36:46;;;;;;;8.88;5.32;;;;;;;-142.75;96.70;74936.78;5025275;28;20033;-61
2023/06/20 09:39:17;;;;;;;8.82;5.20;;;;;;;-142.75;96.07;74940.72;5022889;28;20095;-62
2023/06/20 09:41:50;;;;;;;8.35;5.72;;;;;;;-142.75;100.00;74923.03;5026987;28;20106;-62
2023/06/20 09:44:16;;;;;;;8.32;5.50;;;;;;;-142.75;98.94;74903.34;5027215;28;20029;-62
2023/06/20 09:46:42;;;;;;;11.55;6.38;;;;;;;-142.75;94.82;74907.28;5024977;28;20025;-62
2023/06/20 09:49:07;;;;;;;9.88;6.57;;;;;;;-142.75;96.46;74895.47;5026266;28;20040;-61
2023/06/20 09:51:34;;;;;;;10.25;6.85;;;;;;;-142.75;95.29;74915.16;5025876;28;20104;-62
2023/06/20 09:54:09;;;;;;;8.82;6.38;;;;;;;-142.75;99.09;74885.63;5025952;28;20045;-62
2023/06/20 09:56:42;;;;;;;10.23;6.38;;;;;;;-142.75;96.08;74885.63;5026030;28;20545;-62
2023/06/20 09:59:09;;;;;;;9.88;6.35;;;;;;;-142.75;98.16;74897.44;5025655;28;20559;-62
2023/06/20 10:01:38;;;;;;;12.90;6.45;;;;;;;-142.75;96.42;74889.56;5025878;28;20032;-61
2023/06/20 10:04:05;;;;;;;10.07;6.10;;;;;;;-142.75;94.83;74881.69;5024811;28;20029;-60
2023/06/20 10:06:31;;;;;;;7.55;5.72;;;;;;;-142.75;96.81;74881.69;5025604;28;20133;-62
2023/06/20 10:08:58;;;;;;;10.18;5.55;;;;;;;-142.75;96.58;74854.16;5025745;28;20543;-62
2023/06/20 10:11:24;;;;;;;11.38;7.35;;;;;;;-142.75;96.14;74856.13;5025831;28;20030;-61
2023/06/20 10:13:51;;;;;;;9.65;5.70;;;;;;;-142.75;96.56;74832.50;5023787;28;20033;-63
2023/06/20 10:16:16;;;;;;;7.45;5.50;;;;;;;-142.75;96.33;74814.78;5024365;28;20025;-62
2023/06/20 10:18:41;;;;;;;7.55;4.97;;;;;;;-142.75;96.50;74799.06;5025388;28;20056;-62
2023/06/20 10:21:12;;;;;;;9.40;5.25;;;;;;;-142.75;94.48;74771.50;5025562;28;20105;-62
2023/06/20 10:23:38;;;;;;;8.07;5.13;;;;;;;-142.75;93.19;74767.56;5025026;28;20037;-61
2023/06/20 10:26:08;;;;;;;6.53;4.45;;;;;;;-142.75;93.46;74745.94;5025531;28;20118;-61
2023/06/20 10:28:36;;;;;;;8.10;4.90;;;;;;;-142.75;90.38;74734.13;5025719;28;20029;-61
2023/06/20 10:31:02;;;;;;;7.03;3.88;;;;;;;-142.75;89.14;74736.09;5024020;28;20533;-60
2023/06/20 10:33:30;;;;;;;6.95;3.63;;;;;;;-142.75;88.08;74755.78;5025269;28;20037;-59
2023/06/20 10:36:06;;;;;;;6.10;3.45;;;;;;;-142.75;90.67;74749.88;5025746;28;20025;-61
2023/06/20 10:38:32;;;;;;;;;;;;;;;-142.75;91.17;74738.06;5025864;28;20140;-59
2023/06/20 10:41:22;;;;;;;5.35;3.75;;;;;;;-142.75;89.22;74734.13;5025004;28;19967;-61
2023/06/20 10:43:54;;;;;;;5.03;3.60;;;;;;;-142.75;91.02;74724.28;5025100;28;20033;-61
2023/06/20 10:46:43;;;;;;;4.93;3.75;;;;;;;-142.75;90.89;74716.41;5026051;28;20120;-61
2023/06/20 10:49:10;;;;;;;5.93;3.88;;;;;;;-142.75;91.61;74696.75;5028795;28;20030;-61
2023/06/20 10:51:57;;;;;;;5.18;3.28;;;;;;;-142.75;87.64;74718.38;5029253;28;20045;-60
2023/06/20 10:54:31;;;;;;;6.85;3.63;;;;;;;-142.75;87.34;74732.16;5028645;28;20025;-61
2023/06/20 10:56:56;;;;;;;6.82;3.53;;;;;;;-142.75;91.90;74722.31;5029341;28;20033;-61
2023/06/20 10:59:22;;;;;;;4.85;3.28;;;;;;;-142.75;94.95;74704.63;5029475;28;20430;-60
2023/06/20 11:01:47;;;;;;;5.43;3.42;;;;;;;-142.75;88.80;74730.19;5029444;28;20103;-61
2023/06/20 11:04:14;;;;;;;6.30;3.65;;;;;;;-142.75;90.29;74728.22;5028179;28;20104;-62
2023/06/20 11:06:40;;;;;;;5.10;3.58;;;;;;;-142.75;89.29;74747.91;5028971;28;20386;-62